sensor_id;sensor_type;location;lat;lon;timestamp;temperature;humidity
52044;DHT22;38053;53.100;6.078;2024-02-14T00:01:55;6.40;99.90
52044;DHT22;38053;53.100;6.078;2024-02-14T00:04:21;6.30;99.90
52044;DHT22;38053;53.100;6.078;2024-02-14T00:06:47;6.30;99.90
52044;DHT22;38053;53.100;6.078;2024-02-14T00:09:12;6.40;99.90
52044;DHT22;38053;53.100;6.078;2024-02-14T00:11:38;6.40;99.90
52044;DHT22;38053;53.100;6.078;2024-02-14T00:14:04;6.40;99.90
52044;DHT22;38053;53.100;6.078;2024-02-14T00:16:29;6.40;99.90
52044;DHT22;38053;53.100;6.078;2024-02-14T00:18:58;6.40;99.90
52044;DHT22;38053;53.100;6.078;2024-02-14T00:21:24;6.40;99.90
52044;DHT22;38053;53.100;6.078;2024-02-14T00:23:50;6.40;99.90
52044;DHT22;38053;53.100;6.078;2024-02-14T00:26:15;6.50;99.90
52044;DHT22;38053;53.100;6.078;2024-02-14T00:28:41;6.50;99.90
52044;DHT22;38053;53.100;6.078;2024-02-14T00:31:07;6.40;99.90
52044;DHT22;38053;53.100;6.078;2024-02-14T00:33:32;6.50;99.90
52044;DHT22;38053;53.100;6.078;2024-02-14T00:35:58;6.50;99.90
52044;DHT22;38053;53.100;6.078;2024-02-14T00:38:27;6.50;99.90
52044;DHT22;38053;53.100;6.078;2024-02-14T00:40:52;6.50;99.90
52044;DHT22;38053;53.100;6.078;2024-02-14T00:43:18;6.50;99.90
52044;DHT22;38053;53.100;6.078;2024-02-14T00:45:43;6.50;99.90
52044;DHT22;38053;53.100;6.078;2024-02-14T00:48:09;6.50;99.90
52044;DHT22;38053;53.100;6.078;2024-02-14T00:50:35;6.60;99.90
52044;DHT22;38053;53.100;6.078;2024-02-14T00:53:03;6.60;99.90
52044;DHT22;38053;53.100;6.078;2024-02-14T00:55:28;6.60;99.90
52044;DHT22;38053;53.100;6.078;2024-02-14T00:57:54;6.60;99.90
52044;DHT22;38053;53.100;6.078;2024-02-14T01:00:20;6.70;99.90
52044;DHT22;38053;53.100;6.078;2024-02-14T01:02:45;6.60;99.90
52044;DHT22;38053;53.100;6.078;2024-02-14T01:05:11;6.70;99.90
52044;DHT22;38053;53.100;6.078;2024-02-14T01:07:37;6.70;99.90
52044;DHT22;38053;53.100;6.078;2024-02-14T01:10:03;6.70;99.90
52044;DHT22;38053;53.100;6.078;2024-02-14T01:12:28;6.70;99.90
52044;DHT22;38053;53.100;6.078;2024-02-14T01:14:57;6.70;99.90
52044;DHT22;38053;53.100;6.078;2024-02-14T01:17:23;6.70;99.90
52044;DHT22;38053;53.100;6.078;2024-02-14T01:19:50;6.80;99.90
52044;DHT22;38053;53.100;6.078;2024-02-14T01:22:16;6.80;99.90
52044;DHT22;38053;53.100;6.078;2024-02-14T01:24:45;6.80;99.90
52044;DHT22;38053;53.100;6.078;2024-02-14T01:27:11;6.80;99.90
52044;DHT22;38053;53.100;6.078;2024-02-14T01:29:36;6.90;99.90
52044;DHT22;38053;53.100;6.078;2024-02-14T01:32:02;6.90;99.90
52044;DHT22;38053;53.100;6.078;2024-02-14T01:34:29;6.90;99.90
52044;DHT22;38053;53.100;6.078;2024-02-14T01:36:55;6.90;99.90
52044;DHT22;38053;53.100;6.078;2024-02-14T01:39:21;6.90;99.90
52044;DHT22;38053;53.100;6.078;2024-02-14T01:41:48;7.00;99.90
52044;DHT22;38053;53.100;6.078;2024-02-14T01:44:17;7.00;99.90
52044;DHT22;38053;53.100;6.078;2024-02-14T01:46:44;7.00;99.90
52044;DHT22;38053;53.100;6.078;2024-02-14T01:49:13;7.00;99.90
52044;DHT22;38053;53.100;6.078;2024-02-14T01:51:43;7.00;99.90
52044;DHT22;38053;53.100;6.078;2024-02-14T01:54:11;7.00;99.90
52044;DHT22;38053;53.100;6.078;2024-02-14T01:56:38;7.00;99.90
52044;DHT22;38053;53.100;6.078;2024-02-14T01:59:03;7.10;99.90
52044;DHT22;38053;53.100;6.078;2024-02-14T02:01:31;7.10;99.90
52044;DHT22;38053;53.100;6.078;2024-02-14T02:03:58;7.10;99.90
52044;DHT22;38053;53.100;6.078;2024-02-14T02:06:24;7.10;99.90
52044;DHT22;38053;53.100;6.078;2024-02-14T02:08:53;7.10;99.90
52044;DHT22;38053;53.100;6.078;2024-02-14T02:11:21;7.20;99.90
52044;DHT22;38053;53.100;6.078;2024-02-14T02:13:47;7.20;99.90
52044;DHT22;38053;53.100;6.078;2024-02-14T02:16:13;7.20;99.90
52044;DHT22;38053;53.100;6.078;2024-02-14T02:18:40;7.20;99.90
52044;DHT22;38053;53.100;6.078;2024-02-14T02:21:06;7.30;99.90
52044;DHT22;38053;53.100;6.078;2024-02-14T02:23:33;7.30;99.90
52044;DHT22;38053;53.100;6.078;2024-02-14T02:25:59;7.30;99.90
52044;DHT22;38053;53.100;6.078;2024-02-14T02:28:24;7.30;99.90
52044;DHT22;38053;53.100;6.078;2024-02-14T02:30:50;7.40;99.90
52044;DHT22;38053;53.100;6.078;2024-02-14T02:33:19;7.40;99.90
52044;DHT22;38053;53.100;6.078;2024-02-14T02:35:45;7.40;99.90
52044;DHT22;38053;53.100;6.078;2024-02-14T02:38:13;7.40;99.90
52044;DHT22;38053;53.100;6.078;2024-02-14T02:40:44;7.40;99.90
52044;DHT22;38053;53.100;6.078;2024-02-14T02:43:10;7.40;99.90
52044;DHT22;38053;53.100;6.078;2024-02-14T02:45:36;7.40;99.90
52044;DHT22;38053;53.100;6.078;2024-02-14T02:48:02;7.50;99.90
52044;DHT22;38053;53.100;6.078;2024-02-14T02:50:28;7.50;99.90
52044;DHT22;38053;53.100;6.078;2024-02-14T02:52:54;7.50;99.90
52044;DHT22;38053;53.100;6.078;2024-02-14T02:55:20;7.60;99.90
52044;DHT22;38053;53.100;6.078;2024-02-14T02:57:46;7.60;99.90
52044;DHT22;38053;53.100;6.078;2024-02-14T03:00:12;7.60;99.90
52044;DHT22;38053;53.100;6.078;2024-02-14T03:02:39;7.70;99.90
52044;DHT22;38053;53.100;6.078;2024-02-14T03:05:12;7.70;99.90
52044;DHT22;38053;53.100;6.078;2024-02-14T03:07:46;7.70;99.90
52044;DHT22;38053;53.100;6.078;2024-02-14T03:10:14;7.80;99.90
52044;DHT22;38053;53.100;6.078;2024-02-14T03:12:40;7.80;99.90
52044;DHT22;38053;53.100;6.078;2024-02-14T03:15:06;7.80;99.90
52044;DHT22;38053;53.100;6.078;2024-02-14T03:17:35;7.80;99.90
52044;DHT22;38053;53.100;6.078;2024-02-14T03:20:01;7.90;99.90
52044;DHT22;38053;53.100;6.078;2024-02-14T03:22:27;8.00;99.90
52044;DHT22;38053;53.100;6.078;2024-02-14T03:24:52;8.00;99.90
52044;DHT22;38053;53.100;6.078;2024-02-14T03:27:18;8.00;99.90
52044;DHT22;38053;53.100;6.078;2024-02-14T03:29:47;8.10;99.90
52044;DHT22;38053;53.100;6.078;2024-02-14T03:32:13;8.10;99.90
52044;DHT22;38053;53.100;6.078;2024-02-14T03:34:41;8.20;99.90
52044;DHT22;38053;53.100;6.078;2024-02-14T03:37:07;8.20;99.90
52044;DHT22;38053;53.100;6.078;2024-02-14T03:39:33;8.30;99.90
52044;DHT22;38053;53.100;6.078;2024-02-14T03:41:58;8.30;99.90
52044;DHT22;38053;53.100;6.078;2024-02-14T03:44:31;8.30;99.90
52044;DHT22;38053;53.100;6.078;2024-02-14T03:46:59;8.40;99.90
52044;DHT22;38053;53.100;6.078;2024-02-14T03:49:32;8.40;99.90
52044;DHT22;38053;53.100;6.078;2024-02-14T03:52:01;8.40;99.90
52044;DHT22;38053;53.100;6.078;2024-02-14T03:54:27;8.40;99.90
52044;DHT22;38053;53.100;6.078;2024-02-14T03:56:53;8.40;99.90
52044;DHT22;38053;53.100;6.078;2024-02-14T03:59:20;8.40;99.90
52044;DHT22;38053;53.100;6.078;2024-02-14T04:01:49;8.40;99.90
52044;DHT22;38053;53.100;6.078;2024-02-14T04:04:16;8.40;99.90
52044;DHT22;38053;53.100;6.078;2024-02-14T04:06:42;8.40;99.90
52044;DHT22;38053;53.100;6.078;2024-02-14T04:09:10;8.40;99.90
52044;DHT22;38053;53.100;6.078;2024-02-14T04:11:36;8.50;99.90
52044;DHT22;38053;53.100;6.078;2024-02-14T04:14:02;8.50;99.90
52044;DHT22;38053;53.100;6.078;2024-02-14T04:16:27;8.50;99.90
52044;DHT22;38053;53.100;6.078;2024-02-14T04:18:53;8.50;99.90
52044;DHT22;38053;53.100;6.078;2024-02-14T04:21:20;8.50;99.90
52044;DHT22;38053;53.100;6.078;2024-02-14T04:23:46;8.60;99.90
52044;DHT22;38053;53.100;6.078;2024-02-14T04:26:19;8.60;99.90
52044;DHT22;38053;53.100;6.078;2024-02-14T04:28:45;8.60;99.90
52044;DHT22;38053;53.100;6.078;2024-02-14T04:31:11;8.60;99.90
52044;DHT22;38053;53.100;6.078;2024-02-14T04:33:36;8.70;99.90
52044;DHT22;38053;53.100;6.078;2024-02-14T04:36:02;8.60;99.90
52044;DHT22;38053;53.100;6.078;2024-02-14T04:38:29;8.70;99.90
52044;DHT22;38053;53.100;6.078;2024-02-14T04:40:55;8.70;99.90
52044;DHT22;38053;53.100;6.078;2024-02-14T04:43:22;8.70;99.90
52044;DHT22;38053;53.100;6.078;2024-02-14T04:45:47;8.80;99.90
52044;DHT22;38053;53.100;6.078;2024-02-14T04:48:13;8.80;99.90
52044;DHT22;38053;53.100;6.078;2024-02-14T04:50:39;8.80;99.90
52044;DHT22;38053;53.100;6.078;2024-02-14T04:53:05;8.80;99.90
52044;DHT22;38053;53.100;6.078;2024-02-14T04:55:30;8.80;99.90
52044;DHT22;38053;53.100;6.078;2024-02-14T04:57:56;8.90;99.90
52044;DHT22;38053;53.100;6.078;2024-02-14T05:00:22;8.80;99.90
52044;DHT22;38053;53.100;6.078;2024-02-14T05:02:48;8.90;99.90
52044;DHT22;38053;53.100;6.078;2024-02-14T05:05:13;8.90;99.90
52044;DHT22;38053;53.100;6.078;2024-02-14T05:07:42;8.90;99.90
52044;DHT22;38053;53.100;6.078;2024-02-14T05:10:08;8.90;99.90
52044;DHT22;38053;53.100;6.078;2024-02-14T05:12:33;8.90;99.90
52044;DHT22;38053;53.100;6.078;2024-02-14T05:14:59;8.90;99.90
52044;DHT22;38053;53.100;6.078;2024-02-14T05:17:25;8.90;99.90
52044;DHT22;38053;53.100;6.078;2024-02-14T05:19:50;8.90;99.90
52044;DHT22;38053;53.100;6.078;2024-02-14T05:22:16;8.90;99.90
52044;DHT22;38053;53.100;6.078;2024-02-14T05:24:41;9.00;99.90
52044;DHT22;38053;53.100;6.078;2024-02-14T05:27:07;9.00;99.90
52044;DHT22;38053;53.100;6.078;2024-02-14T05:29:33;9.00;99.90
52044;DHT22;38053;53.100;6.078;2024-02-14T05:31:59;9.00;99.90
52044;DHT22;38053;53.100;6.078;2024-02-14T05:34:24;9.00;99.90
52044;DHT22;38053;53.100;6.078;2024-02-14T05:36:50;9.00;99.90
52044;DHT22;38053;53.100;6.078;2024-02-14T05:39:17;9.00;99.90
52044;DHT22;38053;53.100;6.078;2024-02-14T05:41:44;9.00;99.90
52044;DHT22;38053;53.100;6.078;2024-02-14T05:44:10;9.10;99.90
52044;DHT22;38053;53.100;6.078;2024-02-14T05:46:35;9.10;99.90
52044;DHT22;38053;53.100;6.078;2024-02-14T05:49:01;9.10;99.90
52044;DHT22;38053;53.100;6.078;2024-02-14T05:51:27;9.10;99.90
52044;DHT22;38053;53.100;6.078;2024-02-14T05:53:52;9.10;99.90
52044;DHT22;38053;53.100;6.078;2024-02-14T05:56:18;9.10;99.90
52044;DHT22;38053;53.100;6.078;2024-02-14T05:58:44;9.10;99.90
52044;DHT22;38053;53.100;6.078;2024-02-14T06:01:09;9.10;99.90
52044;DHT22;38053;53.100;6.078;2024-02-14T06:03:35;9.10;99.90
52044;DHT22;38053;53.100;6.078;2024-02-14T06:06:00;9.10;99.90
52044;DHT22;38053;53.100;6.078;2024-02-14T06:08:26;9.20;99.90
52044;DHT22;38053;53.100;6.078;2024-02-14T06:10:54;9.20;99.90
52044;DHT22;38053;53.100;6.078;2024-02-14T06:13:20;9.20;99.90
52044;DHT22;38053;53.100;6.078;2024-02-14T06:15:45;9.20;99.90
52044;DHT22;38053;53.100;6.078;2024-02-14T06:18:11;9.20;99.90
52044;DHT22;38053;53.100;6.078;2024-02-14T06:20:37;9.20;99.90
52044;DHT22;38053;53.100;6.078;2024-02-14T06:23:04;9.20;99.90
52044;DHT22;38053;53.100;6.078;2024-02-14T06:25:30;9.20;99.90
52044;DHT22;38053;53.100;6.078;2024-02-14T06:27:55;9.20;99.90
52044;DHT22;38053;53.100;6.078;2024-02-14T06:30:21;9.20;99.90
52044;DHT22;38053;53.100;6.078;2024-02-14T06:32:47;9.20;99.90
52044;DHT22;38053;53.100;6.078;2024-02-14T06:35:12;9.20;99.90
52044;DHT22;38053;53.100;6.078;2024-02-14T06:37:40;9.10;99.90
52044;DHT22;38053;53.100;6.078;2024-02-14T06:40:06;9.10;99.90
52044;DHT22;38053;53.100;6.078;2024-02-14T06:42:34;9.10;99.90
52044;DHT22;38053;53.100;6.078;2024-02-14T06:44:59;9.10;99.90
52044;DHT22;38053;53.100;6.078;2024-02-14T06:47:25;9.10;99.90
52044;DHT22;38053;53.100;6.078;2024-02-14T06:49:57;9.10;99.90
52044;DHT22;38053;53.100;6.078;2024-02-14T06:52:23;9.10;99.90
52044;DHT22;38053;53.100;6.078;2024-02-14T06:54:49;9.10;99.90
52044;DHT22;38053;53.100;6.078;2024-02-14T06:57:15;9.20;99.90
52044;DHT22;38053;53.100;6.078;2024-02-14T06:59:44;9.10;99.90
52044;DHT22;38053;53.100;6.078;2024-02-14T07:02:10;9.10;99.90
52044;DHT22;38053;53.100;6.078;2024-02-14T07:04:39;9.20;99.90
52044;DHT22;38053;53.100;6.078;2024-02-14T07:07:05;9.10;99.90
52044;DHT22;38053;53.100;6.078;2024-02-14T07:09:42;9.10;99.90
52044;DHT22;38053;53.100;6.078;2024-02-14T07:12:08;9.10;99.90
52044;DHT22;38053;53.100;6.078;2024-02-14T07:14:34;9.10;99.90
52044;DHT22;38053;53.100;6.078;2024-02-14T07:17:00;9.20;99.90
52044;DHT22;38053;53.100;6.078;2024-02-14T07:19:26;9.10;99.90
52044;DHT22;38053;53.100;6.078;2024-02-14T07:21:52;9.20;99.90
52044;DHT22;38053;53.100;6.078;2024-02-14T07:24:18;9.30;99.90
52044;DHT22;38053;53.100;6.078;2024-02-14T07:26:44;9.20;99.90
52044;DHT22;38053;53.100;6.078;2024-02-14T07:29:10;9.20;99.90
52044;DHT22;38053;53.100;6.078;2024-02-14T07:31:35;9.30;99.90
52044;DHT22;38053;53.100;6.078;2024-02-14T07:34:02;9.30;99.90
52044;DHT22;38053;53.100;6.078;2024-02-14T07:36:29;9.30;99.90
52044;DHT22;38053;53.100;6.078;2024-02-14T07:38:55;9.30;99.90
52044;DHT22;38053;53.100;6.078;2024-02-14T07:41:20;9.30;99.90
52044;DHT22;38053;53.100;6.078;2024-02-14T07:43:46;9.40;99.90
52044;DHT22;38053;53.100;6.078;2024-02-14T07:46:44;9.40;99.90
52044;DHT22;38053;53.100;6.078;2024-02-14T07:49:47;9.30;99.90
52044;DHT22;38053;53.100;6.078;2024-02-14T07:52:13;9.40;99.90
52044;DHT22;38053;53.100;6.078;2024-02-14T07:54:39;9.40;99.90
52044;DHT22;38053;53.100;6.078;2024-02-14T07:57:04;9.40;99.90
52044;DHT22;38053;53.100;6.078;2024-02-14T07:59:30;9.40;99.90
52044;DHT22;38053;53.100;6.078;2024-02-14T08:01:58;9.40;99.90
52044;DHT22;38053;53.100;6.078;2024-02-14T08:04:26;9.50;99.90
52044;DHT22;38053;53.100;6.078;2024-02-14T08:06:52;9.40;99.90
52044;DHT22;38053;53.100;6.078;2024-02-14T08:09:18;9.50;99.90
52044;DHT22;38053;53.100;6.078;2024-02-14T08:11:43;9.50;99.90
52044;DHT22;38053;53.100;6.078;2024-02-14T08:14:09;9.50;99.90
52044;DHT22;38053;53.100;6.078;2024-02-14T08:16:34;9.50;99.90
52044;DHT22;38053;53.100;6.078;2024-02-14T08:19:02;9.50;99.90
52044;DHT22;38053;53.100;6.078;2024-02-14T08:21:28;9.60;99.90
52044;DHT22;38053;53.100;6.078;2024-02-14T08:23:54;9.60;99.90
52044;DHT22;38053;53.100;6.078;2024-02-14T08:26:21;9.60;99.90
52044;DHT22;38053;53.100;6.078;2024-02-14T08:28:50;9.60;99.90
52044;DHT22;38053;53.100;6.078;2024-02-14T08:31:16;9.70;99.90
52044;DHT22;38053;53.100;6.078;2024-02-14T08:33:42;9.70;99.90
52044;DHT22;38053;53.100;6.078;2024-02-14T08:36:08;9.70;99.90
52044;DHT22;38053;53.100;6.078;2024-02-14T08:38:34;9.70;99.90
52044;DHT22;38053;53.100;6.078;2024-02-14T08:41:03;9.80;99.90
52044;DHT22;38053;53.100;6.078;2024-02-14T08:43:29;9.80;99.90
52044;DHT22;38053;53.100;6.078;2024-02-14T08:45:58;9.80;99.90
52044;DHT22;38053;53.100;6.078;2024-02-14T08:48:24;9.80;99.90
52044;DHT22;38053;53.100;6.078;2024-02-14T08:50:52;9.80;99.90
52044;DHT22;38053;53.100;6.078;2024-02-14T08:53:18;9.80;99.90
52044;DHT22;38053;53.100;6.078;2024-02-14T08:55:44;9.90;99.90
52044;DHT22;38053;53.100;6.078;2024-02-14T08:58:10;9.90;99.90
52044;DHT22;38053;53.100;6.078;2024-02-14T09:00:36;9.90;99.90
52044;DHT22;38053;53.100;6.078;2024-02-14T09:03:03;10.00;99.90
52044;DHT22;38053;53.100;6.078;2024-02-14T09:05:29;10.00;99.90
52044;DHT22;38053;53.100;6.078;2024-02-14T09:07:54;10.00;99.90
52044;DHT22;38053;53.100;6.078;2024-02-14T09:10:20;10.00;99.90
52044;DHT22;38053;53.100;6.078;2024-02-14T09:12:55;10.00;99.90
52044;DHT22;38053;53.100;6.078;2024-02-14T09:15:21;10.00;99.90
52044;DHT22;38053;53.100;6.078;2024-02-14T09:17:47;10.00;99.90
52044;DHT22;38053;53.100;6.078;2024-02-14T09:20:13;10.00;99.90
52044;DHT22;38053;53.100;6.078;2024-02-14T09:22:42;10.00;99.90
52044;DHT22;38053;53.100;6.078;2024-02-14T09:25:11;10.00;99.90
52044;DHT22;38053;53.100;6.078;2024-02-14T09:27:37;10.00;99.90
52044;DHT22;38053;53.100;6.078;2024-02-14T09:30:03;10.00;99.90
52044;DHT22;38053;53.100;6.078;2024-02-14T09:32:32;10.00;99.90
52044;DHT22;38053;53.100;6.078;2024-02-14T09:34:59;10.00;99.90
52044;DHT22;38053;53.100;6.078;2024-02-14T09:37:25;10.00;99.90
52044;DHT22;38053;53.100;6.078;2024-02-14T09:39:54;10.00;99.90
52044;DHT22;38053;53.100;6.078;2024-02-14T09:42:28;10.00;99.90
52044;DHT22;38053;53.100;6.078;2024-02-14T09:44:59;10.00;99.90
52044;DHT22;38053;53.100;6.078;2024-02-14T09:47:27;9.90;99.90
52044;DHT22;38053;53.100;6.078;2024-02-14T09:49:56;9.90;99.90
52044;DHT22;38053;53.100;6.078;2024-02-14T09:52:22;9.90;99.90
52044;DHT22;38053;53.100;6.078;2024-02-14T09:54:49;10.00;99.90
52044;DHT22;38053;53.100;6.078;2024-02-14T09:57:16;10.00;99.90
52044;DHT22;38053;53.100;6.078;2024-02-14T09:59:43;10.00;99.90
52044;DHT22;38053;53.100;6.078;2024-02-14T10:02:10;10.00;99.90
52044;DHT22;38053;53.100;6.078;2024-02-14T10:04:38;10.00;99.90
52044;DHT22;38053;53.100;6.078;2024-02-14T10:07:04;10.00;99.90
52044;DHT22;38053;53.100;6.078;2024-02-14T10:09:30;10.00;99.90
52044;DHT22;38053;53.100;6.078;2024-02-14T10:11:56;10.00;99.90
52044;DHT22;38053;53.100;6.078;2024-02-14T10:14:26;10.00;99.90
52044;DHT22;38053;53.100;6.078;2024-02-14T10:16:51;10.10;99.90
52044;DHT22;38053;53.100;6.078;2024-02-14T10:19:20;10.10;99.90
52044;DHT22;38053;53.100;6.078;2024-02-14T10:21:56;10.10;99.90
52044;DHT22;38053;53.100;6.078;2024-02-14T10:24:25;10.10;99.90
52044;DHT22;38053;53.100;6.078;2024-02-14T10:26:50;10.10;99.90
52044;DHT22;38053;53.100;6.078;2024-02-14T10:29:17;10.20;99.90
52044;DHT22;38053;53.100;6.078;2024-02-14T10:31:42;10.20;99.90
52044;DHT22;38053;53.100;6.078;2024-02-14T10:34:09;10.20;99.90
52044;DHT22;38053;53.100;6.078;2024-02-14T10:36:38;10.20;99.90
52044;DHT22;38053;53.100;6.078;2024-02-14T10:39:07;10.20;99.90
52044;DHT22;38053;53.100;6.078;2024-02-14T10:41:35;10.30;99.90
52044;DHT22;38053;53.100;6.078;2024-02-14T10:44:04;10.30;99.90
52044;DHT22;38053;53.100;6.078;2024-02-14T10:46:37;10.20;99.90
52044;DHT22;38053;53.100;6.078;2024-02-14T10:49:04;10.30;99.90
52044;DHT22;38053;53.100;6.078;2024-02-14T10:51:34;10.30;99.90
52044;DHT22;38053;53.100;6.078;2024-02-14T10:54:10;10.30;99.90
52044;DHT22;38053;53.100;6.078;2024-02-14T10:56:42;10.30;99.90
52044;DHT22;38053;53.100;6.078;2024-02-14T10:59:15;10.40;99.90
52044;DHT22;38053;53.100;6.078;2024-02-14T11:01:43;10.40;99.90
52044;DHT22;38053;53.100;6.078;2024-02-14T11:04:09;10.40;99.90
52044;DHT22;38053;53.100;6.078;2024-02-14T11:06:48;10.40;99.90
52044;DHT22;38053;53.100;6.078;2024-02-14T11:09:14;10.50;99.90
52044;DHT22;38053;53.100;6.078;2024-02-14T11:11:43;10.50;99.90
52044;DHT22;38053;53.100;6.078;2024-02-14T11:14:09;10.50;99.90
52044;DHT22;38053;53.100;6.078;2024-02-14T11:16:37;10.50;99.90
52044;DHT22;38053;53.100;6.078;2024-02-14T11:21:46;10.50;99.90
52044;DHT22;38053;53.100;6.078;2024-02-14T11:24:19;10.60;99.90
52044;DHT22;38053;53.100;6.078;2024-02-14T11:26:49;10.50;99.90
52044;DHT22;38053;53.100;6.078;2024-02-14T11:29:29;10.50;99.90
52044;DHT22;38053;53.100;6.078;2024-02-14T11:32:02;10.50;99.90
52044;DHT22;38053;53.100;6.078;2024-02-14T11:34:28;10.50;99.90
52044;DHT22;38053;53.100;6.078;2024-02-14T11:36:54;10.50;99.90
52044;DHT22;38053;53.100;6.078;2024-02-14T11:39:22;10.50;99.90
52044;DHT22;38053;53.100;6.078;2024-02-14T11:41:48;10.50;99.90
52044;DHT22;38053;53.100;6.078;2024-02-14T11:44:14;10.50;99.90
52044;DHT22;38053;53.100;6.078;2024-02-14T11:46:39;10.60;99.90
52044;DHT22;38053;53.100;6.078;2024-02-14T11:49:07;10.70;99.90
52044;DHT22;38053;53.100;6.078;2024-02-14T11:51:34;10.70;99.90
52044;DHT22;38053;53.100;6.078;2024-02-14T11:54:05;10.80;99.90
52044;DHT22;38053;53.100;6.078;2024-02-14T11:56:32;10.80;99.90
52044;DHT22;38053;53.100;6.078;2024-02-14T11:59:02;10.90;99.90
52044;DHT22;38053;53.100;6.078;2024-02-14T12:01:31;10.90;99.90
52044;DHT22;38053;53.100;6.078;2024-02-14T12:03:59;11.00;99.90
52044;DHT22;38053;53.100;6.078;2024-02-14T12:06:27;11.00;99.90
52044;DHT22;38053;53.100;6.078;2024-02-14T12:08:54;11.00;99.90
52044;DHT22;38053;53.100;6.078;2024-02-14T12:11:19;11.00;99.90
52044;DHT22;38053;53.100;6.078;2024-02-14T12:13:50;11.00;99.90
52044;DHT22;38053;53.100;6.078;2024-02-14T12:16:15;11.00;99.90
52044;DHT22;38053;53.100;6.078;2024-02-14T12:18:41;11.00;99.90
52044;DHT22;38053;53.100;6.078;2024-02-14T12:21:07;11.00;99.90
52044;DHT22;38053;53.100;6.078;2024-02-14T12:23:33;11.00;99.90
52044;DHT22;38053;53.100;6.078;2024-02-14T12:26:02;11.00;99.90
52044;DHT22;38053;53.100;6.078;2024-02-14T12:28:29;11.00;99.90
52044;DHT22;38053;53.100;6.078;2024-02-14T12:30:58;11.00;99.90
52044;DHT22;38053;53.100;6.078;2024-02-14T12:33:27;11.00;99.90
52044;DHT22;38053;53.100;6.078;2024-02-14T12:35:57;11.00;99.90
52044;DHT22;38053;53.100;6.078;2024-02-14T12:38:44;11.00;99.90
52044;DHT22;38053;53.100;6.078;2024-02-14T12:41:10;11.00;99.90
52044;DHT22;38053;53.100;6.078;2024-02-14T12:43:35;11.00;99.90
52044;DHT22;38053;53.100;6.078;2024-02-14T12:46:01;11.00;99.90
52044;DHT22;38053;53.100;6.078;2024-02-14T12:48:30;10.90;99.90
52044;DHT22;38053;53.100;6.078;2024-02-14T12:50:55;10.90;99.90
52044;DHT22;38053;53.100;6.078;2024-02-14T12:53:22;10.90;99.90
52044;DHT22;38053;53.100;6.078;2024-02-14T12:55:48;10.90;99.90
52044;DHT22;38053;53.100;6.078;2024-02-14T12:58:15;10.90;99.90
52044;DHT22;38053;53.100;6.078;2024-02-14T13:00:40;10.90;99.90
52044;DHT22;38053;53.100;6.078;2024-02-14T13:03:17;11.00;99.90
52044;DHT22;38053;53.100;6.078;2024-02-14T13:05:43;10.90;99.90
52044;DHT22;38053;53.100;6.078;2024-02-14T13:08:10;10.90;99.90
52044;DHT22;38053;53.100;6.078;2024-02-14T13:10:39;10.90;99.90
52044;DHT22;38053;53.100;6.078;2024-02-14T13:13:05;10.90;99.90
52044;DHT22;38053;53.100;6.078;2024-02-14T13:15:30;10.90;99.90
52044;DHT22;38053;53.100;6.078;2024-02-14T13:17:56;10.90;99.90
52044;DHT22;38053;53.100;6.078;2024-02-14T13:20:24;10.90;99.90
52044;DHT22;38053;53.100;6.078;2024-02-14T13:22:50;10.90;99.90
52044;DHT22;38053;53.100;6.078;2024-02-14T13:25:15;10.90;99.90
52044;DHT22;38053;53.100;6.078;2024-02-14T13:27:42;10.90;99.90
52044;DHT22;38053;53.100;6.078;2024-02-14T13:30:11;10.80;99.90
52044;DHT22;38053;53.100;6.078;2024-02-14T13:32:36;10.80;99.90
52044;DHT22;38053;53.100;6.078;2024-02-14T13:35:02;10.80;99.90
52044;DHT22;38053;53.100;6.078;2024-02-14T13:37:29;10.80;99.90
52044;DHT22;38053;53.100;6.078;2024-02-14T13:39:55;10.80;99.90
52044;DHT22;38053;53.100;6.078;2024-02-14T13:42:20;10.80;99.90
52044;DHT22;38053;53.100;6.078;2024-02-14T13:44:48;10.80;99.90
52044;DHT22;38053;53.100;6.078;2024-02-14T13:47:14;10.80;99.90
52044;DHT22;38053;53.100;6.078;2024-02-14T13:49:42;10.90;99.90
52044;DHT22;38053;53.100;6.078;2024-02-14T13:52:08;10.90;99.90
52044;DHT22;38053;53.100;6.078;2024-02-14T13:54:34;10.90;99.90
52044;DHT22;38053;53.100;6.078;2024-02-14T13:57:02;10.90;99.90
52044;DHT22;38053;53.100;6.078;2024-02-14T13:59:48;11.00;99.90
52044;DHT22;38053;53.100;6.078;2024-02-14T14:02:25;11.00;99.90
52044;DHT22;38053;53.100;6.078;2024-02-14T14:04:51;11.00;99.90
52044;DHT22;38053;53.100;6.078;2024-02-14T14:07:18;11.00;99.90
52044;DHT22;38053;53.100;6.078;2024-02-14T14:09:44;11.00;99.90
52044;DHT22;38053;53.100;6.078;2024-02-14T14:12:12;11.00;99.90
52044;DHT22;38053;53.100;6.078;2024-02-14T14:14:43;11.00;99.90
52044;DHT22;38053;53.100;6.078;2024-02-14T14:17:09;11.10;99.90
52044;DHT22;38053;53.100;6.078;2024-02-14T14:19:35;11.00;99.90
52044;DHT22;38053;53.100;6.078;2024-02-14T14:22:01;11.10;99.90
52044;DHT22;38053;53.100;6.078;2024-02-14T14:24:27;11.10;99.90
52044;DHT22;38053;53.100;6.078;2024-02-14T14:26:54;11.10;99.90
52044;DHT22;38053;53.100;6.078;2024-02-14T14:29:19;11.10;99.90
52044;DHT22;38053;53.100;6.078;2024-02-14T14:31:45;11.10;99.90
52044;DHT22;38053;53.100;6.078;2024-02-14T14:34:11;11.10;99.90
52044;DHT22;38053;53.100;6.078;2024-02-14T14:36:36;11.20;99.90
52044;DHT22;38053;53.100;6.078;2024-02-14T14:39:03;11.10;99.90
52044;DHT22;38053;53.100;6.078;2024-02-14T14:41:29;11.20;99.90
52044;DHT22;38053;53.100;6.078;2024-02-14T14:43:54;11.10;99.90
52044;DHT22;38053;53.100;6.078;2024-02-14T14:46:20;11.10;99.90
52044;DHT22;38053;53.100;6.078;2024-02-14T14:48:51;11.10;99.90
52044;DHT22;38053;53.100;6.078;2024-02-14T14:51:19;11.10;99.90
52044;DHT22;38053;53.100;6.078;2024-02-14T14:53:45;11.10;99.90
52044;DHT22;38053;53.100;6.078;2024-02-14T14:56:11;11.10;99.90
52044;DHT22;38053;53.100;6.078;2024-02-14T14:58:36;11.00;99.90
52044;DHT22;38053;53.100;6.078;2024-02-14T15:01:02;11.00;99.90
52044;DHT22;38053;53.100;6.078;2024-02-14T15:03:29;11.10;99.90
52044;DHT22;38053;53.100;6.078;2024-02-14T15:05:55;11.10;99.90
52044;DHT22;38053;53.100;6.078;2024-02-14T15:08:20;11.10;99.90
52044;DHT22;38053;53.100;6.078;2024-02-14T15:10:54;11.00;99.90
52044;DHT22;38053;53.100;6.078;2024-02-14T15:13:21;11.00;99.90
52044;DHT22;38053;53.100;6.078;2024-02-14T15:15:51;11.00;99.90
52044;DHT22;38053;53.100;6.078;2024-02-14T15:18:17;11.00;99.90
52044;DHT22;38053;53.100;6.078;2024-02-14T15:20:43;11.00;99.90
52044;DHT22;38053;53.100;6.078;2024-02-14T15:23:08;11.00;99.90
52044;DHT22;38053;53.100;6.078;2024-02-14T15:25:34;11.00;99.90
52044;DHT22;38053;53.100;6.078;2024-02-14T15:28:10;10.90;99.90
52044;DHT22;38053;53.100;6.078;2024-02-14T15:30:39;10.90;99.90
52044;DHT22;38053;53.100;6.078;2024-02-14T15:33:23;10.90;99.90
52044;DHT22;38053;53.100;6.078;2024-02-14T15:35:50;10.90;99.90
52044;DHT22;38053;53.100;6.078;2024-02-14T15:38:16;10.90;99.90
52044;DHT22;38053;53.100;6.078;2024-02-14T15:40:47;10.90;99.90
52044;DHT22;38053;53.100;6.078;2024-02-14T15:43:16;10.80;99.90